sensor_id;sensor_type;location;lat;lon;timestamp;P1;durP1;ratioP1;P2;durP2;ratioP2
40252;SDS011;25972;51.854;4.534;2024-02-21T00:01:08;0.20;;;0.13;;
40252;SDS011;25972;51.854;4.534;2024-02-21T00:03:41;3.00;;;0.70;;
40252;SDS011;25972;51.854;4.534;2024-02-21T00:06:08;2.22;;;1.77;;
40252;SDS011;25972;51.854;4.534;2024-02-21T00:08:34;0.55;;;0.30;;
40252;SDS011;25972;51.854;4.534;2024-02-21T00:11:00;1.55;;;1.17;;
40252;SDS011;25972;51.854;4.534;2024-02-21T00:13:27;1.17;;;0.68;;
40252;SDS011;25972;51.854;4.534;2024-02-21T00:15:53;1.65;;;1.65;;
40252;SDS011;25972;51.854;4.534;2024-02-21T00:18:21;0.68;;;0.68;;
40252;SDS011;25972;51.854;4.534;2024-02-21T00:20:47;1.30;;;1.10;;
40252;SDS011;25972;51.854;4.534;2024-02-21T00:23:13;2.30;;;0.47;;
40252;SDS011;25972;51.854;4.534;2024-02-21T00:25:39;0.50;;;0.45;;
40252;SDS011;25972;51.854;4.534;2024-02-21T00:28:05;3.50;;;0.95;;
40252;SDS011;25972;51.854;4.534;2024-02-21T00:30:32;4.03;;;1.55;;
40252;SDS011;25972;51.854;4.534;2024-02-21T00:32:59;0.30;;;0.30;;
40252;SDS011;25972;51.854;4.534;2024-02-21T00:35:25;2.47;;;0.88;;
40252;SDS011;25972;51.854;4.534;2024-02-21T00:37:51;1.67;;;1.58;;
40252;SDS011;25972;51.854;4.534;2024-02-21T00:40:17;1.13;;;0.60;;
40252;SDS011;25972;51.854;4.534;2024-02-21T00:42:47;4.68;;;0.73;;
40252;SDS011;25972;51.854;4.534;2024-02-21T00:45:13;0.95;;;0.43;;
40252;SDS011;25972;51.854;4.534;2024-02-21T00:47:38;1.55;;;0.60;;
40252;SDS011;25972;51.854;4.534;2024-02-21T00:50:06;0.52;;;0.52;;
40252;SDS011;25972;51.854;4.534;2024-02-21T00:52:34;2.25;;;0.57;;
40252;SDS011;25972;51.854;4.534;2024-02-21T00:55:00;0.50;;;0.50;;
40252;SDS011;25972;51.854;4.534;2024-02-21T00:57:29;0.70;;;0.50;;
40252;SDS011;25972;51.854;4.534;2024-02-21T00:59:55;0.88;;;0.85;;
40252;SDS011;25972;51.854;4.534;2024-02-21T01:02:22;0.68;;;0.55;;
40252;SDS011;25972;51.854;4.534;2024-02-21T01:04:48;0.45;;;0.45;;
40252;SDS011;25972;51.854;4.534;2024-02-21T01:07:15;2.72;;;1.35;;
40252;SDS011;25972;51.854;4.534;2024-02-21T01:09:40;0.30;;;0.30;;
40252;SDS011;25972;51.854;4.534;2024-02-21T01:12:06;3.00;;;1.08;;
40252;SDS011;25972;51.854;4.534;2024-02-21T01:14:32;1.17;;;0.32;;
40252;SDS011;25972;51.854;4.534;2024-02-21T01:16:57;1.17;;;1.08;;
40252;SDS011;25972;51.854;4.534;2024-02-21T01:19:23;4.93;;;1.02;;
40252;SDS011;25972;51.854;4.534;2024-02-21T01:21:49;1.20;;;1.10;;
40252;SDS011;25972;51.854;4.534;2024-02-21T01:24:14;1.27;;;0.43;;
40252;SDS011;25972;51.854;4.534;2024-02-21T01:26:40;1.58;;;0.75;;
40252;SDS011;25972;51.854;4.534;2024-02-21T01:29:06;8.75;;;1.65;;
40252;SDS011;25972;51.854;4.534;2024-02-21T01:31:32;13.90;;;0.75;;
40252;SDS011;25972;51.854;4.534;2024-02-21T01:33:57;2.45;;;0.52;;
40252;SDS011;25972;51.854;4.534;2024-02-21T01:36:23;0.43;;;0.43;;
40252;SDS011;25972;51.854;4.534;2024-02-21T01:38:49;0.60;;;0.60;;
40252;SDS011;25972;51.854;4.534;2024-02-21T01:41:14;0.50;;;0.43;;
40252;SDS011;25972;51.854;4.534;2024-02-21T01:43:41;0.60;;;0.60;;
40252;SDS011;25972;51.854;4.534;2024-02-21T01:46:07;2.47;;;0.30;;
40252;SDS011;25972;51.854;4.534;2024-02-21T01:48:33;1.25;;;1.15;;
40252;SDS011;25972;51.854;4.534;2024-02-21T01:50:59;0.55;;;0.55;;
40252;SDS011;25972;51.854;4.534;2024-02-21T01:53:27;0.35;;;0.28;;
40252;SDS011;25972;51.854;4.534;2024-02-21T01:55:55;0.85;;;0.85;;
40252;SDS011;25972;51.854;4.534;2024-02-21T01:58:21;1.48;;;0.98;;
40252;SDS011;25972;51.854;4.534;2024-02-21T02:00:48;1.33;;;0.80;;
40252;SDS011;25972;51.854;4.534;2024-02-21T02:03:15;1.40;;;0.68;;
40252;SDS011;25972;51.854;4.534;2024-02-21T02:05:47;0.43;;;0.43;;
40252;SDS011;25972;51.854;4.534;2024-02-21T02:08:14;0.50;;;0.50;;
40252;SDS011;25972;51.854;4.534;2024-02-21T02:10:44;5.45;;;1.73;;
40252;SDS011;25972;51.854;4.534;2024-02-21T02:13:10;0.88;;;0.85;;
40252;SDS011;25972;51.854;4.534;2024-02-21T02:15:41;4.05;;;0.57;;
40252;SDS011;25972;51.854;4.534;2024-02-21T02:18:10;0.10;;;0.10;;
40252;SDS011;25972;51.854;4.534;2024-02-21T02:20:37;2.70;;;1.17;;
40252;SDS011;25972;51.854;4.534;2024-02-21T02:23:10;0.77;;;0.60;;
40252;SDS011;25972;51.854;4.534;2024-02-21T02:25:48;0.47;;;0.47;;
40252;SDS011;25972;51.854;4.534;2024-02-21T02:28:17;1.42;;;0.25;;
40252;SDS011;25972;51.854;4.534;2024-02-21T02:30:43;0.40;;;0.40;;
40252;SDS011;25972;51.854;4.534;2024-02-21T02:33:08;0.25;;;0.25;;
40252;SDS011;25972;51.854;4.534;2024-02-21T02:35:34;0.63;;;0.63;;
40252;SDS011;25972;51.854;4.534;2024-02-21T02:38:01;0.68;;;0.68;;
40252;SDS011;25972;51.854;4.534;2024-02-21T02:40:28;1.08;;;1.08;;
40252;SDS011;25972;51.854;4.534;2024-02-21T02:42:53;0.32;;;0.32;;
40252;SDS011;25972;51.854;4.534;2024-02-21T02:45:23;2.95;;;0.88;;
40252;SDS011;25972;51.854;4.534;2024-02-21T02:47:51;0.70;;;0.70;;
40252;SDS011;25972;51.854;4.534;2024-02-21T02:50:20;4.25;;;0.88;;
40252;SDS011;25972;51.854;4.534;2024-02-21T02:52:45;1.45;;;1.08;;
40252;SDS011;25972;51.854;4.534;2024-02-21T02:55:11;3.97;;;1.33;;
40252;SDS011;25972;51.854;4.534;2024-02-21T02:57:37;0.68;;;0.65;;
40252;SDS011;25972;51.854;4.534;2024-02-21T03:00:03;0.60;;;0.60;;
40252;SDS011;25972;51.854;4.534;2024-02-21T03:02:29;0.57;;;0.57;;
40252;SDS011;25972;51.854;4.534;2024-02-21T03:04:56;0.40;;;0.30;;
40252;SDS011;25972;51.854;4.534;2024-02-21T03:07:24;1.10;;;0.80;;
40252;SDS011;25972;51.854;4.534;2024-02-21T03:09:50;1.05;;;1.05;;
40252;SDS011;25972;51.854;4.534;2024-02-21T03:12:17;9.18;;;1.35;;
40252;SDS011;25972;51.854;4.534;2024-02-21T03:14:52;0.60;;;0.60;;
40252;SDS011;25972;51.854;4.534;2024-02-21T03:17:18;0.70;;;0.70;;
40252;SDS011;25972;51.854;4.534;2024-02-21T03:19:44;0.77;;;0.77;;
40252;SDS011;25972;51.854;4.534;2024-02-21T03:22:10;3.30;;;1.65;;
40252;SDS011;25972;51.854;4.534;2024-02-21T03:24:35;1.10;;;0.40;;
40252;SDS011;25972;51.854;4.534;2024-02-21T03:27:01;0.98;;;0.98;;
40252;SDS011;25972;51.854;4.534;2024-02-21T03:29:27;0.60;;;0.60;;
40252;SDS011;25972;51.854;4.534;2024-02-21T03:31:52;1.67;;;1.58;;
40252;SDS011;25972;51.854;4.534;2024-02-21T03:34:18;0.77;;;0.77;;
40252;SDS011;25972;51.854;4.534;2024-02-21T03:36:44;1.45;;;1.35;;
40252;SDS011;25972;51.854;4.534;2024-02-21T03:39:10;3.72;;;1.00;;
40252;SDS011;25972;51.854;4.534;2024-02-21T03:41:35;2.38;;;1.38;;
40252;SDS011;25972;51.854;4.534;2024-02-21T03:44:01;0.93;;;0.93;;
40252;SDS011;25972;51.854;4.534;2024-02-21T03:46:28;1.40;;;1.02;;
40252;SDS011;25972;51.854;4.534;2024-02-21T03:48:54;1.25;;;0.85;;
40252;SDS011;25972;51.854;4.534;2024-02-21T03:51:20;1.83;;;1.45;;
40252;SDS011;25972;51.854;4.534;2024-02-21T03:53:46;1.65;;;0.80;;
40252;SDS011;25972;51.854;4.534;2024-02-21T03:56:12;6.95;;;1.88;;
40252;SDS011;25972;51.854;4.534;2024-02-21T03:58:37;1.23;;;1.13;;
40252;SDS011;25972;51.854;4.534;2024-02-21T04:01:03;0.95;;;0.63;;
40252;SDS011;25972;51.854;4.534;2024-02-21T04:03:29;2.03;;;1.92;;
40252;SDS011;25972;51.854;4.534;2024-02-21T04:05:55;1.55;;;1.45;;
40252;SDS011;25972;51.854;4.534;2024-02-21T04:08:22;1.42;;;1.33;;
40252;SDS011;25972;51.854;4.534;2024-02-21T04:10:49;2.72;;;1.92;;
40252;SDS011;25972;51.854;4.534;2024-02-21T04:13:14;0.98;;;0.82;;
40252;SDS011;25972;51.854;4.534;2024-02-21T04:15:40;1.42;;;1.33;;
40252;SDS011;25972;51.854;4.534;2024-02-21T04:18:06;0.55;;;0.55;;
40252;SDS011;25972;51.854;4.534;2024-02-21T04:20:31;1.60;;;1.13;;
40252;SDS011;25972;51.854;4.534;2024-02-21T04:22:57;1.00;;;1.00;;
40252;SDS011;25972;51.854;4.534;2024-02-21T04:25:23;1.05;;;0.68;;
40252;SDS011;25972;51.854;4.534;2024-02-21T04:27:49;0.90;;;0.90;;
40252;SDS011;25972;51.854;4.534;2024-02-21T04:30:14;1.48;;;1.23;;
40252;SDS011;25972;51.854;4.534;2024-02-21T04:32:40;2.47;;;1.45;;
40252;SDS011;25972;51.854;4.534;2024-02-21T04:35:06;2.05;;;1.45;;
40252;SDS011;25972;51.854;4.534;2024-02-21T04:37:33;0.88;;;0.82;;
40252;SDS011;25972;51.854;4.534;2024-02-21T04:39:59;1.95;;;1.70;;
40252;SDS011;25972;51.854;4.534;2024-02-21T04:42:25;2.00;;;1.88;;
40252;SDS011;25972;51.854;4.534;2024-02-21T04:44:51;4.97;;;1.33;;
40252;SDS011;25972;51.854;4.534;2024-02-21T04:47:16;3.13;;;2.47;;
40252;SDS011;25972;51.854;4.534;2024-02-21T04:49:43;1.90;;;1.15;;
40252;SDS011;25972;51.854;4.534;2024-02-21T04:52:09;3.58;;;1.17;;
40252;SDS011;25972;51.854;4.534;2024-02-21T04:54:35;2.22;;;1.30;;
40252;SDS011;25972;51.854;4.534;2024-02-21T04:57:02;2.40;;;2.05;;
40252;SDS011;25972;51.854;4.534;2024-02-21T04:59:29;1.75;;;1.42;;
40252;SDS011;25972;51.854;4.534;2024-02-21T05:01:55;3.20;;;2.03;;
40252;SDS011;25972;51.854;4.534;2024-02-21T05:04:21;2.40;;;2.03;;
40252;SDS011;25972;51.854;4.534;2024-02-21T05:06:47;3.88;;;2.15;;
40252;SDS011;25972;51.854;4.534;2024-02-21T05:09:12;4.13;;;2.50;;
40252;SDS011;25972;51.854;4.534;2024-02-21T05:11:39;2.38;;;2.05;;
40252;SDS011;25972;51.854;4.534;2024-02-21T05:14:04;2.53;;;2.33;;
40252;SDS011;25972;51.854;4.534;2024-02-21T05:16:31;2.03;;;1.85;;
40252;SDS011;25972;51.854;4.534;2024-02-21T05:18:56;2.70;;;2.22;;
40252;SDS011;25972;51.854;4.534;2024-02-21T05:21:22;5.35;;;2.47;;
40252;SDS011;25972;51.854;4.534;2024-02-21T05:23:51;4.03;;;3.63;;
40252;SDS011;25972;51.854;4.534;2024-02-21T05:26:24;3.30;;;1.85;;
40252;SDS011;25972;51.854;4.534;2024-02-21T05:28:50;2.33;;;2.08;;
40252;SDS011;25972;51.854;4.534;2024-02-21T05:31:19;11.93;;;3.90;;
40252;SDS011;25972;51.854;4.534;2024-02-21T05:33:46;3.03;;;2.83;;
40252;SDS011;25972;51.854;4.534;2024-02-21T05:36:12;1.88;;;1.55;;
40252;SDS011;25972;51.854;4.534;2024-02-21T05:38:39;2.53;;;2.33;;
40252;SDS011;25972;51.854;4.534;2024-02-21T05:41:05;3.30;;;3.10;;
40252;SDS011;25972;51.854;4.534;2024-02-21T05:43:31;2.78;;;2.58;;
40252;SDS011;25972;51.854;4.534;2024-02-21T05:45:57;2.05;;;1.58;;
40252;SDS011;25972;51.854;4.534;2024-02-21T05:48:23;1.40;;;0.98;;
40252;SDS011;25972;51.854;4.534;2024-02-21T05:50:49;10.38;;;3.00;;
40252;SDS011;25972;51.854;4.534;2024-02-21T05:53:15;4.20;;;2.38;;
40252;SDS011;25972;51.854;4.534;2024-02-21T05:55:40;5.90;;;3.00;;
40252;SDS011;25972;51.854;4.534;2024-02-21T05:58:07;1.58;;;1.48;;
40252;SDS011;25972;51.854;4.534;2024-02-21T06:00:35;6.05;;;2.17;;
40252;SDS011;25972;51.854;4.534;2024-02-21T06:03:01;4.00;;;3.13;;
40252;SDS011;25972;51.854;4.534;2024-02-21T06:05:27;4.22;;;1.30;;
40252;SDS011;25972;51.854;4.534;2024-02-21T06:07:56;2.58;;;2.38;;
40252;SDS011;25972;51.854;4.534;2024-02-21T06:10:33;1.98;;;1.40;;
40252;SDS011;25972;51.854;4.534;2024-02-21T06:12:58;6.55;;;2.13;;
40252;SDS011;25972;51.854;4.534;2024-02-21T06:15:25;4.13;;;2.63;;
40252;SDS011;25972;51.854;4.534;2024-02-21T06:17:51;2.78;;;2.58;;
40252;SDS011;25972;51.854;4.534;2024-02-21T06:20:17;5.75;;;2.35;;
40252;SDS011;25972;51.854;4.534;2024-02-21T06:22:43;6.07;;;2.70;;
40252;SDS011;25972;51.854;4.534;2024-02-21T06:25:08;3.10;;;2.90;;
40252;SDS011;25972;51.854;4.534;2024-02-21T06:27:34;2.20;;;2.03;;
40252;SDS011;25972;51.854;4.534;2024-02-21T06:30:00;6.30;;;3.10;;
40252;SDS011;25972;51.854;4.534;2024-02-21T06:32:28;3.45;;;3.15;;
40252;SDS011;25972;51.854;4.534;2024-02-21T06:34:54;6.43;;;3.78;;
40252;SDS011;25972;51.854;4.534;2024-02-21T06:37:20;10.68;;;1.38;;
40252;SDS011;25972;51.854;4.534;2024-02-21T06:39:47;15.18;;;2.92;;
40252;SDS011;25972;51.854;4.534;2024-02-21T06:42:19;6.15;;;2.90;;
40252;SDS011;25972;51.854;4.534;2024-02-21T06:44:45;14.15;;;4.40;;
40252;SDS011;25972;51.854;4.534;2024-02-21T06:47:10;3.45;;;2.88;;
40252;SDS011;25972;51.854;4.534;2024-02-21T06:49:36;3.67;;;3.38;;
40252;SDS011;25972;51.854;4.534;2024-02-21T06:52:03;2.83;;;2.53;;
40252;SDS011;25972;51.854;4.534;2024-02-21T06:54:31;1.67;;;1.50;;
40252;SDS011;25972;51.854;4.534;2024-02-21T06:56:57;5.88;;;3.28;;
40252;SDS011;25972;51.854;4.534;2024-02-21T06:59:36;4.45;;;2.90;;
40252;SDS011;25972;51.854;4.534;2024-02-21T07:02:33;3.45;;;3.15;;
40252;SDS011;25972;51.854;4.534;2024-02-21T07:04:59;6.55;;;1.75;;
40252;SDS011;25972;51.854;4.534;2024-02-21T07:07:25;3.67;;;3.08;;
40252;SDS011;25972;51.854;4.534;2024-02-21T07:09:50;5.57;;;2.55;;
40252;SDS011;25972;51.854;4.534;2024-02-21T07:12:18;5.55;;;3.50;;
40252;SDS011;25972;51.854;4.534;2024-02-21T07:14:44;4.88;;;2.58;;
40252;SDS011;25972;51.854;4.534;2024-02-21T07:17:10;3.45;;;2.35;;
40252;SDS011;25972;51.854;4.534;2024-02-21T07:19:35;3.17;;;2.83;;
40252;SDS011;25972;51.854;4.534;2024-02-21T07:24:35;2.75;;;2.53;;
40252;SDS011;25972;51.854;4.534;2024-02-21T07:27:02;8.25;;;3.92;;
40252;SDS011;25972;51.854;4.534;2024-02-21T07:29:29;4.82;;;3.60;;
40252;SDS011;25972;51.854;4.534;2024-02-21T07:31:55;4.10;;;3.05;;
40252;SDS011;25972;51.854;4.534;2024-02-21T07:34:21;1.50;;;1.40;;
40252;SDS011;25972;51.854;4.534;2024-02-21T07:36:47;2.58;;;1.95;;
40252;SDS011;25972;51.854;4.534;2024-02-21T07:39:12;4.13;;;3.17;;
40252;SDS011;25972;51.854;4.534;2024-02-21T07:41:38;2.00;;;1.85;;
40252;SDS011;25972;51.854;4.534;2024-02-21T07:44:08;3.65;;;3.20;;
40252;SDS011;25972;51.854;4.534;2024-02-21T07:46:35;3.80;;;2.90;;
40252;SDS011;25972;51.854;4.534;2024-02-21T07:49:00;8.23;;;2.75;;
40252;SDS011;25972;51.854;4.534;2024-02-21T07:51:27;10.75;;;2.92;;
40252;SDS011;25972;51.854;4.534;2024-02-21T07:53:53;3.75;;;2.70;;
40252;SDS011;25972;51.854;4.534;2024-02-21T07:56:22;3.60;;;1.85;;
40252;SDS011;25972;51.854;4.534;2024-02-21T07:58:47;3.65;;;2.45;;
40252;SDS011;25972;51.854;4.534;2024-02-21T08:01:22;3.53;;;2.15;;
40252;SDS011;25972;51.854;4.534;2024-02-21T08:06:15;2.92;;;2.70;;
40252;SDS011;25972;51.854;4.534;2024-02-21T08:08:40;1.70;;;1.27;;
40252;SDS011;25972;51.854;4.534;2024-02-21T08:11:06;3.60;;;2.92;;
40252;SDS011;25972;51.854;4.534;2024-02-21T08:13:32;2.78;;;2.22;;
40252;SDS011;25972;51.854;4.534;2024-02-21T08:15:58;2.08;;;1.98;;
40252;SDS011;25972;51.854;4.534;2024-02-21T08:18:23;2.50;;;1.73;;
40252;SDS011;25972;51.854;4.534;2024-02-21T08:20:49;2.72;;;1.67;;
40252;SDS011;25972;51.854;4.534;2024-02-21T08:23:18;4.43;;;3.47;;
40252;SDS011;25972;51.854;4.534;2024-02-21T08:25:44;6.72;;;2.85;;
40252;SDS011;25972;51.854;4.534;2024-02-21T08:28:10;2.20;;;2.00;;
40252;SDS011;25972;51.854;4.534;2024-02-21T08:30:35;3.25;;;2.80;;
40252;SDS011;25972;51.854;4.534;2024-02-21T08:33:01;4.55;;;3.30;;
40252;SDS011;25972;51.854;4.534;2024-02-21T08:35:28;5.18;;;1.95;;
40252;SDS011;25972;51.854;4.534;2024-02-21T08:37:54;5.45;;;2.88;;
40252;SDS011;25972;51.854;4.534;2024-02-21T08:40:19;4.53;;;2.03;;
40252;SDS011;25972;51.854;4.534;2024-02-21T08:42:46;4.75;;;3.85;;
40252;SDS011;25972;51.854;4.534;2024-02-21T08:45:12;5.57;;;3.08;;
40252;SDS011;25972;51.854;4.534;2024-02-21T08:47:41;3.55;;;2.72;;
40252;SDS011;25972;51.854;4.534;2024-02-21T08:52:34;5.40;;;2.65;;
40252;SDS011;25972;51.854;4.534;2024-02-21T08:55:00;3.22;;;2.15;;
40252;SDS011;25972;51.854;4.534;2024-02-21T08:57:26;3.83;;;3.30;;
40252;SDS011;25972;51.854;4.534;2024-02-21T08:59:52;7.13;;;2.85;;
40252;SDS011;25972;51.854;4.534;2024-02-21T09:02:18;3.40;;;2.47;;
40252;SDS011;25972;51.854;4.534;2024-02-21T09:04:43;6.43;;;3.25;;
40252;SDS011;25972;51.854;4.534;2024-02-21T09:07:12;3.28;;;2.10;;
40252;SDS011;25972;51.854;4.534;2024-02-21T09:12:07;5.03;;;2.65;;
40252;SDS011;25972;51.854;4.534;2024-02-21T09:14:34;1.77;;;1.60;;
40252;SDS011;25972;51.854;4.534;2024-02-21T09:17:05;1.80;;;1.48;;
40252;SDS011;25972;51.854;4.534;2024-02-21T09:19:30;4.30;;;2.47;;
40252;SDS011;25972;51.854;4.534;2024-02-21T09:21:56;3.00;;;2.70;;
40252;SDS011;25972;51.854;4.534;2024-02-21T09:24:22;5.82;;;2.78;;
40252;SDS011;25972;51.854;4.534;2024-02-21T09:26:47;4.50;;;1.98;;
40252;SDS011;25972;51.854;4.534;2024-02-21T09:29:14;4.78;;;3.47;;
40252;SDS011;25972;51.854;4.534;2024-02-21T09:31:41;4.45;;;2.72;;
40252;SDS011;25972;51.854;4.534;2024-02-21T09:34:07;3.28;;;2.42;;
40252;SDS011;25972;51.854;4.534;2024-02-21T09:36:32;2.88;;;2.50;;
40252;SDS011;25972;51.854;4.534;2024-02-21T09:38:58;1.73;;;1.40;;
40252;SDS011;25972;51.854;4.534;2024-02-21T09:41:27;1.65;;;1.55;;
40252;SDS011;25972;51.854;4.534;2024-02-21T09:43:53;1.88;;;1.77;;
40252;SDS011;25972;51.854;4.534;2024-02-21T09:46:19;5.85;;;2.03;;
40252;SDS011;25972;51.854;4.534;2024-02-21T09:51:49;2.03;;;1.92;;
40252;SDS011;25972;51.854;4.534;2024-02-21T09:54:18;2.72;;;2.53;;
40252;SDS011;25972;51.854;4.534;2024-02-21T09:56:46;5.97;;;3.17;;
40252;SDS011;25972;51.854;4.534;2024-02-21T09:59:12;2.75;;;2.55;;
40252;SDS011;25972;51.854;4.534;2024-02-21T10:01:42;2.92;;;1.83;;
40252;SDS011;25972;51.854;4.534;2024-02-21T10:04:09;4.53;;;3.97;;
40252;SDS011;25972;51.854;4.534;2024-02-21T10:06:35;6.35;;;1.75;;
40252;SDS011;25972;51.854;4.534;2024-02-21T10:09:02;2.30;;;1.83;;
40252;SDS011;25972;51.854;4.534;2024-02-21T10:11:28;4.15;;;1.88;;
40252;SDS011;25972;51.854;4.534;2024-02-21T10:14:07;3.08;;;1.05;;
40252;SDS011;25972;51.854;4.534;2024-02-21T10:16:33;3.92;;;2.03;;
40252;SDS011;25972;51.854;4.534;2024-02-21T10:18:59;1.67;;;1.50;;
40252;SDS011;25972;51.854;4.534;2024-02-21T10:21:25;2.13;;;1.92;;
40252;SDS011;25972;51.854;4.534;2024-02-21T10:23:52;1.05;;;0.68;;
40252;SDS011;25972;51.854;4.534;2024-02-21T10:26:18;2.30;;;2.03;;
40252;SDS011;25972;51.854;4.534;2024-02-21T10:28:45;2.88;;;2.65;;
40252;SDS011;25972;51.854;4.534;2024-02-21T10:31:20;3.85;;;3.55;;
40252;SDS011;25972;51.854;4.534;2024-02-21T10:33:56;2.60;;;2.17;;
40252;SDS011;25972;51.854;4.534;2024-02-21T10:36:23;2.33;;;1.77;;
40252;SDS011;25972;51.854;4.534;2024-02-21T10:38:52;5.28;;;2.88;;
40252;SDS011;25972;51.854;4.534;2024-02-21T10:41:19;4.75;;;4.20;;
40252;SDS011;25972;51.854;4.534;2024-02-21T10:43:47;2.72;;;2.53;;
40252;SDS011;25972;51.854;4.534;2024-02-21T10:46:18;2.25;;;2.03;;
40252;SDS011;25972;51.854;4.534;2024-02-21T10:48:45;3.33;;;3.03;;
40252;SDS011;25972;51.854;4.534;2024-02-21T10:51:16;2.65;;;2.00;;
40252;SDS011;25972;51.854;4.534;2024-02-21T10:53:50;1.92;;;1.60;;
40252;SDS011;25972;51.854;4.534;2024-02-21T10:56:31;3.35;;;2.35;;
40252;SDS011;25972;51.854;4.534;2024-02-21T10:59:02;2.38;;;2.17;;
40252;SDS011;25972;51.854;4.534;2024-02-21T11:01:29;1.60;;;1.35;;
40252;SDS011;25972;51.854;4.534;2024-02-21T11:04:00;3.45;;;2.50;;
40252;SDS011;25972;51.854;4.534;2024-02-21T11:06:28;3.05;;;2.40;;
40252;SDS011;25972;51.854;4.534;2024-02-21T11:09:04;2.55;;;2.35;;
40252;SDS011;25972;51.854;4.534;2024-02-21T11:11:49;3.88;;;2.83;;
40252;SDS011;25972;51.854;4.534;2024-02-21T11:14:20;4.57;;;2.33;;
40252;SDS011;25972;51.854;4.534;2024-02-21T11:16:46;2.22;;;2.03;;
40252;SDS011;25972;51.854;4.534;2024-02-21T11:19:22;2.25;;;2.05;;
40252;SDS011;25972;51.854;4.534;2024-02-21T11:21:50;2.92;;;2.72;;
40252;SDS011;25972;51.854;4.534;2024-02-21T11:27:18;2.85;;;2.53;;
40252;SDS011;25972;51.854;4.534;2024-02-21T11:29:49;1.77;;;1.67;;
40252;SDS011;25972;51.854;4.534;2024-02-21T11:32:19;4.30;;;3.00;;
40252;SDS011;25972;51.854;4.534;2024-02-21T11:35:01;2.63;;;2.33;;
40252;SDS011;25972;51.854;4.534;2024-02-21T11:37:30;3.17;;;2.03;;
40252;SDS011;25972;51.854;4.534;2024-02-21T11:39:59;2.53;;;2.33;;
40252;SDS011;25972;51.854;4.534;2024-02-21T11:42:26;3.33;;;2.05;;
40252;SDS011;25972;51.854;4.534;2024-02-21T11:44:53;2.08;;;1.83;;
40252;SDS011;25972;51.854;4.534;2024-02-21T11:47:21;2.40;;;2.20;;
40252;SDS011;25972;51.854;4.534;2024-02-21T11:49:48;2.42;;;2.22;;
40252;SDS011;25972;51.854;4.534;2024-02-21T11:52:18;3.25;;;2.88;;
40252;SDS011;25972;51.854;4.534;2024-02-21T11:57:13;2.92;;;1.75;;
40252;SDS011;25972;51.854;4.534;2024-02-21T11:59:39;2.03;;;1.52;;
40252;SDS011;25972;51.854;4.534;2024-02-21T12:02:05;3.22;;;2.20;;
40252;SDS011;25972;51.854;4.534;2024-02-21T12:04:32;2.03;;;1.35;;
40252;SDS011;25972;51.854;4.534;2024-02-21T12:06:58;3.05;;;2.28;;
40252;SDS011;25972;51.854;4.534;2024-02-21T12:09:24;2.55;;;2.35;;
40252;SDS011;25972;51.854;4.534;2024-02-21T12:11:57;7.93;;;2.47;;
40252;SDS011;25972;51.854;4.534;2024-02-21T12:14:25;1.63;;;1.52;;
40252;SDS011;25972;51.854;4.534;2024-02-21T12:16:51;1.48;;;1.30;;
40252;SDS011;25972;51.854;4.534;2024-02-21T12:19:16;1.50;;;1.40;;
40252;SDS011;25972;51.854;4.534;2024-02-21T12:21:42;5.60;;;2.20;;
40252;SDS011;25972;51.854;4.534;2024-02-21T12:24:21;1.60;;;1.50;;
40252;SDS011;25972;51.854;4.534;2024-02-21T12:26:51;1.80;;;1.67;;
40252;SDS011;25972;51.854;4.534;2024-02-21T12:29:18;3.50;;;2.05;;
40252;SDS011;25972;51.854;4.534;2024-02-21T12:31:44;8.45;;;1.40;;
40252;SDS011;25972;51.854;4.534;2024-02-21T12:34:10;2.67;;;2.25;;
40252;SDS011;25972;51.854;4.534;2024-02-21T12:36:40;1.77;;;1.55;;
40252;SDS011;25972;51.854;4.534;2024-02-21T12:39:08;3.90;;;1.98;;
40252;SDS011;25972;51.854;4.534;2024-02-21T12:41:34;1.65;;;1.30;;
40252;SDS011;25972;51.854;4.534;2024-02-21T12:44:07;3.55;;;2.80;;
40252;SDS011;25972;51.854;4.534;2024-02-21T12:46:36;2.72;;;1.92;;
40252;SDS011;25972;51.854;4.534;2024-02-21T12:49:03;3.35;;;1.30;;
40252;SDS011;25972;51.854;4.534;2024-02-21T12:51:29;2.53;;;1.92;;
40252;SDS011;25972;51.854;4.534;2024-02-21T12:53:55;3.25;;;1.48;;
40252;SDS011;25972;51.854;4.534;2024-02-21T12:56:22;1.73;;;1.63;;
40252;SDS011;25972;51.854;4.534;2024-02-21T12:58:47;1.50;;;1.15;;
40252;SDS011;25972;51.854;4.534;2024-02-21T13:01:13;2.20;;;1.73;;
40252;SDS011;25972;51.854;4.534;2024-02-21T13:03:39;1.33;;;1.00;;
40252;SDS011;25972;51.854;4.534;2024-02-21T13:06:05;1.85;;;1.75;;
40252;SDS011;25972;51.854;4.534;2024-02-21T13:08:35;4.20;;;2.28;;
40252;SDS011;25972;51.854;4.534;2024-02-21T13:11:01;1.67;;;1.58;;
40252;SDS011;25972;51.854;4.534;2024-02-21T13:13:27;4.63;;;1.90;;
40252;SDS011;25972;51.854;4.534;2024-02-21T13:15:53;1.20;;;1.08;;
40252;SDS011;25972;51.854;4.534;2024-02-21T13:18:19;1.60;;;1.30;;
40252;SDS011;25972;51.854;4.534;2024-02-21T13:20:44;2.13;;;1.95;;
40252;SDS011;25972;51.854;4.534;2024-02-21T13:23:10;1.52;;;1.42;;
40252;SDS011;25972;51.854;4.534;2024-02-21T13:25:36;4.35;;;2.08;;
40252;SDS011;25972;51.854;4.534;2024-02-21T13:28:01;5.93;;;1.98;;
40252;SDS011;25972;51.854;4.534;2024-02-21T13:30:28;2.53;;;2.22;;
40252;SDS011;25972;51.854;4.534;2024-02-21T13:32:54;1.92;;;1.30;;
40252;SDS011;25972;51.854;4.534;2024-02-21T13:35:20;3.50;;;1.63;;
40252;SDS011;25972;51.854;4.534;2024-02-21T13:37:45;3.33;;;1.75;;
40252;SDS011;25972;51.854;4.534;2024-02-21T13:40:11;1.98;;;1.83;;
40252;SDS011;25972;51.854;4.534;2024-02-21T13:42:40;3.08;;;2.53;;
40252;SDS011;25972;51.854;4.534;2024-02-21T13:45:06;1.83;;;1.73;;
40252;SDS011;25972;51.854;4.534;2024-02-21T13:47:35;1.65;;;1.52;;
40252;SDS011;25972;51.854;4.534;2024-02-21T13:50:02;2.08;;;1.73;;
40252;SDS011;25972;51.854;4.534;2024-02-21T13:52:29;3.83;;;1.70;;
40252;SDS011;25972;51.854;4.534;2024-02-21T13:54:56;5.30;;;0.80;;
40252;SDS011;25972;51.854;4.534;2024-02-21T13:57:22;4.35;;;1.95;;
40252;SDS011;25972;51.854;4.534;2024-02-21T13:59:48;2.40;;;1.40;;
40252;SDS011;25972;51.854;4.534;2024-02-21T14:02:13;1.73;;;1.63;;
40252;SDS011;25972;51.854;4.534;2024-02-21T14:04:39;5.13;;;2.40;;
40252;SDS011;25972;51.854;4.534;2024-02-21T14:07:05;2.95;;;1.65;;
40252;SDS011;25972;51.854;4.534;2024-02-21T14:09:31;2.50;;;1.58;;
40252;SDS011;25972;51.854;4.534;2024-02-21T14:11:58;3.60;;;1.30;;
40252;SDS011;25972;51.854;4.534;2024-02-21T14:14:24;2.83;;;1.75;;
40252;SDS011;25972;51.854;4.534;2024-02-21T14:16:49;3.08;;;2.60;;
40252;SDS011;25972;51.854;4.534;2024-02-21T14:19:15;1.23;;;1.13;;
40252;SDS011;25972;51.854;4.534;2024-02-21T14:21:40;1.88;;;1.70;;
40252;SDS011;25972;51.854;4.534;2024-02-21T14:24:06;1.35;;;1.27;;
40252;SDS011;25972;51.854;4.534;2024-02-21T14:26:33;1.83;;;1.48;;
40252;SDS011;25972;51.854;4.534;2024-02-21T14:29:00;2.42;;;1.70;;
40252;SDS011;25972;51.854;4.534;2024-02-21T14:31:28;1.20;;;1.10;;
40252;SDS011;25972;51.854;4.534;2024-02-21T14:36:22;2.95;;;2.08;;
40252;SDS011;25972;51.854;4.534;2024-02-21T14:38:49;1.70;;;1.60;;
40252;SDS011;25972;51.854;4.534;2024-02-21T14:41:16;1.63;;;1.52;;
40252;SDS011;25972;51.854;4.534;2024-02-21T14:43:42;2.10;;;1.00;;
40252;SDS011;25972;51.854;4.534;2024-02-21T14:46:08;5.50;;;1.15;;
40252;SDS011;25972;51.854;4.534;2024-02-21T14:48:34;2.08;;;1.90;;
40252;SDS011;25972;51.854;4.534;2024-02-21T14:51:01;2.30;;;1.55;;
40252;SDS011;25972;51.854;4.534;2024-02-21T14:53:27;1.92;;;1.58;;
40252;SDS011;25972;51.854;4.534;2024-02-21T14:55:55;1.65;;;1.55;;
40252;SDS011;25972;51.854;4.534;2024-02-21T14:58:22;1.55;;;1.45;;
40252;SDS011;25972;51.854;4.534;2024-02-21T15:00:49;1.35;;;1.20;;
40252;SDS011;25972;51.854;4.534;2024-02-21T15:03:15;1.85;;;1.73;;
40252;SDS011;25972;51.854;4.534;2024-02-21T15:05:45;1.92;;;1.80;;
40252;SDS011;25972;51.854;4.534;2024-02-21T15:08:11;12.02;;;2.60;;